createdAt,value
2023-04-01T00:00:28.216Z,92.90
2023-04-01T00:01:28.243Z,92.92
2023-04-01T00:02:28.216Z,92.91
2023-04-01T00:03:28.492Z,93.17
2023-04-01T00:04:28.238Z,93.15
2023-04-01T00:05:28.183Z,93.01
2023-04-01T00:06:28.155Z,93.13
2023-04-01T00:07:30.692Z,93.35
2023-04-01T00:08:28.135Z,93.48
2023-04-01T00:09:29.988Z,93.17
2023-04-01T00:10:28.129Z,93.62
2023-04-01T00:11:28.086Z,93.83
2023-04-01T00:12:28.090Z,93.99
2023-04-01T00:13:28.065Z,93.62
2023-04-01T00:14:28.058Z,93.66
2023-04-01T00:15:28.046Z,93.89
2023-04-01T00:16:28.065Z,93.97
2023-04-01T00:17:28.020Z,94.16
2023-04-01T00:18:28.013Z,94.07
2023-04-01T00:19:27.976Z,94.24
2023-04-01T00:20:27.974Z,93.98
2023-04-01T00:21:27.984Z,93.96
2023-04-01T00:22:27.982Z,94.12
2023-04-01T00:23:27.925Z,94.19
2023-04-01T00:24:27.925Z,94.57
2023-04-01T00:25:27.901Z,94.51
2023-04-01T00:26:27.906Z,94.76
2023-04-01T00:27:27.880Z,94.74
2023-04-01T00:28:27.894Z,94.86
2023-04-01T00:29:27.911Z,94.93
2023-04-01T00:30:27.874Z,94.93
2023-04-01T00:31:27.909Z,95.07
2023-04-01T00:32:27.875Z,94.97
2023-04-01T00:33:27.826Z,95.22
2023-04-01T00:34:27.882Z,95.35
2023-04-01T00:35:27.794Z,95.51
2023-04-01T00:36:27.912Z,95.30
2023-04-01T00:37:27.768Z,95.38
2023-04-01T00:38:27.743Z,95.36
2023-04-01T00:39:27.731Z,95.60
2023-04-01T00:40:27.759Z,95.65
2023-04-01T00:41:27.716Z,95.68
2023-04-01T00:42:27.688Z,95.58
2023-04-01T00:43:27.668Z,95.81
2023-04-01T00:44:27.697Z,95.97
2023-04-01T00:45:27.681Z,95.95
2023-04-01T00:46:27.714Z,96.07
2023-04-01T00:47:27.675Z,96.28
2023-04-01T00:48:27.610Z,96.32
2023-04-01T00:49:27.595Z,96.33
2023-04-01T00:50:27.610Z,96.28
2023-04-01T00:51:27.579Z,96.47
2023-04-01T00:52:27.620Z,96.49
2023-04-01T00:53:27.543Z,96.59
2023-04-01T00:54:27.529Z,96.68
2023-04-01T00:55:27.524Z,96.70
2023-04-01T00:56:27.514Z,96.80
2023-04-01T00:57:27.527Z,96.93
2023-04-01T00:58:27.538Z,97.11
2023-04-01T00:59:27.480Z,97.19
2023-04-01T01:00:27.465Z,97.32
2023-04-01T01:01:27.500Z,97.27
2023-04-01T01:02:27.547Z,97.23
2023-04-01T01:03:27.509Z,97.32
2023-04-01T01:04:27.480Z,97.36
2023-04-01T01:05:27.597Z,97.35
2023-04-01T01:06:27.390Z,97.26
2023-04-01T01:07:27.377Z,97.03
2023-04-01T01:08:27.344Z,97.23
2023-04-01T01:09:27.368Z,97.26
2023-04-01T01:10:27.360Z,97.41
2023-04-01T01:11:27.946Z,97.35
2023-04-01T01:12:27.296Z,97.42
2023-04-01T01:13:27.291Z,97.58
2023-04-01T01:14:27.303Z,97.71
2023-04-01T01:15:27.259Z,97.79
2023-04-01T01:16:27.337Z,97.88
2023-04-01T01:17:27.272Z,97.95
2023-04-01T01:18:27.845Z,97.91
2023-04-01T01:19:27.210Z,97.96
2023-04-01T01:20:27.188Z,98.09
2023-04-01T01:21:27.185Z,98.08
2023-04-01T01:22:27.205Z,98.03
2023-04-01T01:23:27.167Z,98.00
2023-04-01T01:24:27.160Z,98.00
2023-04-01T01:25:27.182Z,98.09
2023-04-01T01:26:27.144Z,98.24
2023-04-01T01:27:27.149Z,98.26
2023-04-01T01:28:27.114Z,98.22
2023-04-01T01:29:27.070Z,98.21
2023-04-01T01:30:27.077Z,98.17
2023-04-01T01:31:27.081Z,98.16
2023-04-01T01:32:27.072Z,98.28
2023-04-01T01:33:27.082Z,98.27
2023-04-01T01:34:27.040Z,98.20
2023-04-01T01:35:27.006Z,98.25
2023-04-01T01:36:27.017Z,98.30
2023-04-01T01:37:27.001Z,98.29
2023-04-01T01:38:26.965Z,98.33
2023-04-01T01:39:26.953Z,98.42
2023-04-01T01:40:27.004Z,98.41
2023-04-01T01:41:26.942Z,98.49
2023-04-01T01:42:26.920Z,98.54
2023-04-01T01:43:26.907Z,98.60
2023-04-01T01:44:26.887Z,98.63
2023-04-01T01:45:26.869Z,98.68
2023-04-01T01:46:26.945Z,98.68
2023-04-01T01:47:26.891Z,98.70
2023-04-01T01:48:26.879Z,98.67
2023-04-01T01:49:26.845Z,98.70
2023-04-01T01:50:26.825Z,98.77
2023-04-01T01:51:26.791Z,98.82
2023-04-01T01:52:26.810Z,98.85
2023-04-01T01:53:26.771Z,98.88
2023-04-01T01:54:26.781Z,98.93
2023-04-01T01:55:26.748Z,98.96
2023-04-01T01:56:26.721Z,98.95
2023-04-01T01:57:26.740Z,98.98
2023-04-01T01:58:26.721Z,99.00
2023-04-01T01:59:26.726Z,98.98
2023-04-01T02:00:26.680Z,99.03
2023-04-01T02:01:26.877Z,99.08
2023-04-01T02:02:26.698Z,99.09
2023-04-01T02:03:26.656Z,99.11
2023-04-01T02:04:26.691Z,99.12
2023-04-01T02:05:26.649Z,99.12
2023-04-01T02:06:26.610Z,99.17
2023-04-01T02:07:26.602Z,99.20
2023-04-01T02:08:26.569Z,99.25
2023-04-01T02:09:26.575Z,99.25
2023-04-01T02:10:26.576Z,99.29
2023-04-01T02:11:26.576Z,99.30
2023-04-01T02:12:26.527Z,99.37
2023-04-01T02:13:26.532Z,99.41
2023-04-01T02:14:26.511Z,99.44
2023-04-01T02:15:26.501Z,99.44
2023-04-01T02:16:26.652Z,99.47
2023-04-01T02:17:26.497Z,99.44
2023-04-01T02:18:26.456Z,99.44
2023-04-01T02:19:26.442Z,99.46
2023-04-01T02:20:26.442Z,99.45
2023-04-01T02:21:26.426Z,99.44
2023-04-01T02:22:26.444Z,99.46
2023-04-01T02:23:26.410Z,99.45
2023-04-01T02:24:26.389Z,99.44
2023-04-01T02:25:26.378Z,99.44
2023-04-01T02:26:26.349Z,99.47
2023-04-01T02:27:26.353Z,99.48
2023-04-01T02:28:26.342Z,99.51
2023-04-01T02:29:26.316Z,99.52
2023-04-01T02:30:26.289Z,99.56
2023-04-01T02:31:26.321Z,99.58
2023-04-01T02:32:26.286Z,99.58
2023-04-01T02:33:26.255Z,99.60
2023-04-01T02:34:26.272Z,99.59
2023-04-01T02:35:26.252Z,99.58
2023-04-01T02:36:26.275Z,99.60
2023-04-01T02:37:26.230Z,99.61
2023-04-01T02:38:26.193Z,99.58
2023-04-01T02:39:26.190Z,99.53
2023-04-01T02:40:26.208Z,99.50
2023-04-01T02:41:26.171Z,99.50
2023-04-01T02:42:26.132Z,99.45
2023-04-01T02:43:26.129Z,99.42
2023-04-01T02:44:26.122Z,99.39
2023-04-01T02:45:26.101Z,99.34
2023-04-01T02:46:26.200Z,99.35
2023-04-01T02:47:26.136Z,99.36
2023-04-01T02:48:26.063Z,99.23
2023-04-01T02:49:26.076Z,99.15
2023-04-01T02:50:26.044Z,99.00
2023-04-01T02:51:26.034Z,98.96
2023-04-01T02:52:26.033Z,98.89
2023-04-01T02:53:25.998Z,98.76
2023-04-01T02:54:26.019Z,98.71
2023-04-01T02:55:25.980Z,98.63
2023-04-01T02:56:25.973Z,98.61
2023-04-01T02:57:25.993Z,98.51
2023-04-01T02:58:25.985Z,98.44
2023-04-01T02:59:25.927Z,98.41
2023-04-01T03:00:25.920Z,98.37
2023-04-01T03:01:25.990Z,98.26
2023-04-01T03:02:26.001Z,98.26
2023-04-01T03:03:25.944Z,98.13
2023-04-01T03:04:25.931Z,98.03
2023-04-01T03:05:25.878Z,97.93
2023-04-01T03:06:25.835Z,97.88
2023-04-01T03:07:25.857Z,97.86
2023-04-01T03:08:25.846Z,97.96
2023-04-01T03:09:25.810Z,97.94
2023-04-01T03:10:25.828Z,97.95
2023-04-01T03:11:25.807Z,97.95
2023-04-01T03:12:25.777Z,98.10
2023-04-01T03:13:25.756Z,98.13
2023-04-01T03:14:25.729Z,98.25
2023-04-01T03:15:25.741Z,98.18
2023-04-01T03:16:25.800Z,98.21
2023-04-01T03:17:25.745Z,98.20
2023-04-01T03:18:25.702Z,98.18
2023-04-01T03:19:25.685Z,98.21
2023-04-01T03:20:25.695Z,98.24
2023-04-01T03:21:25.665Z,98.12
2023-04-01T03:22:25.661Z,98.08
2023-04-01T03:23:25.628Z,98.04
2023-04-01T03:24:25.627Z,98.08
2023-04-01T03:25:25.596Z,98.16
2023-04-01T03:26:25.644Z,98.20
2023-04-01T03:27:25.582Z,98.14
2023-04-01T03:28:25.577Z,98.14
2023-04-01T03:29:25.553Z,98.14
2023-04-01T03:30:25.547Z,98.14
2023-04-01T03:31:25.579Z,98.28
2023-04-01T03:32:25.604Z,98.28
2023-04-01T03:33:25.570Z,98.27
2023-04-01T03:34:25.524Z,98.30
2023-04-01T03:35:25.478Z,98.17
2023-04-01T03:36:25.507Z,98.10
2023-04-01T03:37:25.457Z,98.06
2023-04-01T03:38:25.434Z,98.14
2023-04-01T03:39:25.415Z,98.15
2023-04-01T03:40:25.436Z,98.25
2023-04-01T03:41:25.408Z,98.32
2023-04-01T03:42:25.412Z,98.25
2023-04-01T03:43:25.370Z,97.88
2023-04-01T03:44:25.391Z,97.85
2023-04-01T03:45:25.355Z,97.87
2023-04-01T03:46:25.411Z,97.84
2023-04-01T03:47:25.359Z,97.77
2023-04-01T03:48:25.299Z,97.84
2023-04-01T03:49:25.294Z,97.83
2023-04-01T03:50:25.292Z,97.68
2023-04-01T03:51:25.257Z,97.50
2023-04-01T03:52:25.278Z,97.56
2023-04-01T03:53:25.235Z,97.69
2023-04-01T03:54:25.297Z,97.74
2023-04-01T03:55:25.224Z,97.68
2023-04-01T03:56:25.193Z,97.77
2023-04-01T03:57:25.239Z,97.59
2023-04-01T03:58:25.198Z,97.65
2023-04-01T03:59:25.155Z,97.57
2023-04-01T04:00:25.165Z,97.49
2023-04-01T04:01:25.129Z,97.46
2023-04-01T04:02:25.193Z,97.43
2023-04-01T04:03:25.259Z,97.37
2023-04-01T04:04:25.174Z,97.38
2023-04-01T04:05:25.075Z,97.50
2023-04-01T04:06:25.076Z,97.49
2023-04-01T04:07:25.063Z,97.49
2023-04-01T04:08:25.069Z,97.39
2023-04-01T04:09:25.062Z,97.14
2023-04-01T04:10:25.075Z,96.89
2023-04-01T04:11:25.024Z,96.92
2023-04-01T04:12:25.007Z,97.01
2023-04-01T04:13:25.002Z,96.86
2023-04-01T04:14:24.978Z,96.92
2023-04-01T04:15:24.956Z,96.65
2023-04-01T04:16:25.087Z,96.68
2023-04-01T04:17:24.960Z,96.66
2023-04-01T04:18:24.934Z,96.77
2023-04-01T04:19:24.906Z,96.79
2023-04-01T04:20:24.903Z,96.83
2023-04-01T04:21:24.894Z,96.81
2023-04-01T04:22:24.911Z,96.77
2023-04-01T04:23:24.873Z,96.46
2023-04-01T04:24:24.917Z,96.45
2023-04-01T04:25:24.822Z,96.39
2023-04-01T04:26:24.841Z,96.27
2023-04-01T04:27:24.816Z,96.33
2023-04-01T04:28:24.828Z,96.35
2023-04-01T04:29:24.808Z,96.27
2023-04-01T04:30:24.782Z,96.16
2023-04-01T04:31:24.782Z,96.09
2023-04-01T04:32:24.790Z,95.86
2023-04-01T04:33:24.754Z,95.77
2023-04-01T04:34:24.738Z,95.54
2023-04-01T04:35:24.716Z,95.47
2023-04-01T04:36:24.764Z,95.30
2023-04-01T04:37:24.680Z,95.27
2023-04-01T04:38:24.661Z,95.31
2023-04-01T04:39:24.667Z,95.28
2023-04-01T04:40:24.701Z,94.96
2023-04-01T04:41:24.657Z,94.65
2023-04-01T04:42:24.634Z,94.60
2023-04-01T04:43:24.602Z,94.67
2023-04-01T04:44:24.628Z,94.82
2023-04-01T04:45:24.587Z,94.59
2023-04-01T04:46:24.688Z,94.63
2023-04-01T04:47:24.598Z,94.23
2023-04-01T04:48:24.556Z,94.08
2023-04-01T04:49:24.541Z,94.33
2023-04-01T04:50:24.584Z,94.52
2023-04-01T04:51:24.524Z,94.82
2023-04-01T04:52:24.516Z,94.74
2023-04-01T04:53:24.482Z,94.66
2023-04-01T04:54:24.478Z,94.34
2023-04-01T04:55:24.463Z,94.22
2023-04-01T04:56:24.441Z,93.88
2023-04-01T04:57:24.496Z,94.04
2023-04-01T04:58:24.452Z,93.99
2023-04-01T04:59:24.412Z,94.06
2023-04-01T05:00:24.403Z,93.97
2023-04-01T05:01:24.406Z,93.90
2023-04-01T05:02:24.487Z,93.52
2023-04-01T05:03:24.600Z,93.70
2023-04-01T05:04:24.372Z,93.58
2023-04-01T05:05:24.316Z,93.74
2023-04-01T05:06:24.308Z,93.91
2023-04-01T05:07:24.313Z,94.08
2023-04-01T05:08:24.316Z,94.05
2023-04-01T05:09:24.355Z,94.41
2023-04-01T05:10:24.300Z,94.64
2023-04-01T05:11:24.250Z,94.28
2023-04-01T05:12:24.249Z,93.36
2023-04-01T05:13:24.244Z,93.23
2023-04-01T05:14:24.265Z,93.32
2023-04-01T05:15:24.260Z,93.36
2023-04-01T05:16:24.267Z,93.41
2023-04-01T05:17:24.236Z,93.74
2023-04-01T05:18:24.189Z,92.98
2023-04-01T05:19:24.162Z,93.21
2023-04-01T05:20:24.162Z,93.03
2023-04-01T05:21:24.120Z,93.65
2023-04-01T05:22:24.164Z,93.70
2023-04-01T05:23:24.150Z,93.76
2023-04-01T05:24:24.090Z,93.60
2023-04-01T05:25:24.090Z,93.74
2023-04-01T05:26:24.093Z,93.82
2023-04-01T05:27:24.047Z,93.88
2023-04-01T05:28:24.092Z,93.59
2023-04-01T05:29:24.026Z,93.85
2023-04-01T05:30:24.024Z,93.97
2023-04-01T05:31:24.098Z,94.20
2023-04-01T05:32:24.003Z,94.22
2023-04-01T05:33:23.991Z,94.29
2023-04-01T05:34:24.012Z,94.47
2023-04-01T05:35:24.082Z,94.65
2023-04-01T05:36:23.926Z,94.67
2023-04-01T05:37:23.914Z,94.70
2023-04-01T05:38:23.939Z,94.86
2023-04-01T05:39:23.976Z,94.78
2023-04-01T05:40:23.926Z,94.80
2023-04-01T05:41:23.878Z,94.88
2023-04-01T05:42:23.886Z,94.81
2023-04-01T05:43:23.862Z,94.84
2023-04-01T05:44:23.827Z,94.67
2023-04-01T05:45:23.820Z,94.74
2023-04-01T05:46:23.874Z,95.02
2023-04-01T05:47:23.858Z,94.99
2023-04-01T05:48:23.810Z,94.80
2023-04-01T05:49:24.065Z,94.66
2023-04-01T05:50:23.792Z,94.52
2023-04-01T05:51:23.768Z,94.48
2023-04-01T05:52:23.768Z,94.34
2023-04-01T05:53:23.718Z,94.25
2023-04-01T05:54:23.724Z,94.34
2023-04-01T05:55:23.687Z,94.28
2023-04-01T05:56:23.689Z,94.25
2023-04-01T05:57:23.831Z,94.03
2023-04-01T05:58:23.691Z,93.29
2023-04-01T05:59:23.648Z,93.09
2023-04-01T06:00:23.625Z,93.22
2023-04-01T06:01:23.656Z,93.18
2023-04-01T06:02:23.676Z,93.19
2023-04-01T06:03:23.678Z,93.33
2023-04-01T06:04:23.713Z,93.32
2023-04-01T06:05:23.567Z,93.20
2023-04-01T06:06:23.555Z,92.56
2023-04-01T06:07:23.557Z,92.72
2023-04-01T06:08:23.503Z,93.27
2023-04-01T06:09:23.561Z,92.75
2023-04-01T06:10:23.538Z,92.27
2023-04-01T06:11:23.477Z,92.68
2023-04-01T06:12:23.489Z,92.63
2023-04-01T06:13:23.476Z,92.84
2023-04-01T06:14:23.458Z,92.15
2023-04-01T06:15:23.420Z,92.22
2023-04-01T06:16:23.513Z,92.13
2023-04-01T06:17:23.470Z,92.00
2023-04-01T06:18:23.390Z,92.29
2023-04-01T06:19:23.408Z,91.07
2023-04-01T06:20:23.368Z,90.95
2023-04-01T06:21:23.361Z,91.30
2023-04-01T06:22:23.410Z,91.28
2023-04-01T06:23:23.352Z,89.83
2023-04-01T06:24:23.306Z,90.08
2023-04-01T06:25:23.315Z,90.60
2023-04-01T06:26:23.286Z,90.66
2023-04-01T06:27:23.300Z,89.67
2023-04-01T06:28:24.087Z,89.98
2023-04-01T06:29:23.300Z,90.18
2023-04-01T06:30:23.263Z,89.94
2023-04-01T06:31:23.324Z,89.69
2023-04-01T06:32:23.394Z,90.00
2023-04-01T06:33:23.202Z,89.52
2023-04-01T06:34:23.243Z,89.37
2023-04-01T06:35:23.183Z,89.32
2023-04-01T06:36:23.238Z,89.20
2023-04-01T06:37:23.149Z,88.41
2023-04-01T06:38:23.151Z,88.77
2023-04-01T06:39:23.166Z,88.85
2023-04-01T06:40:23.141Z,88.71
2023-04-01T06:41:23.089Z,88.79
2023-04-01T06:42:23.091Z,88.75
2023-04-01T06:43:23.077Z,88.43
2023-04-01T06:44:23.081Z,88.47
2023-04-01T06:45:23.034Z,88.59
2023-04-01T06:46:23.113Z,87.92
2023-04-01T06:47:23.017Z,88.02
2023-04-01T06:48:23.019Z,87.60
2023-04-01T06:49:22.999Z,87.85
2023-04-01T06:50:22.967Z,86.43
2023-04-01T06:51:22.988Z,85.72
2023-04-01T06:52:22.980Z,84.34
2023-04-01T06:53:22.951Z,83.95
2023-04-01T06:54:22.916Z,83.40
2023-04-01T06:55:23.090Z,85.06
2023-04-01T06:56:22.919Z,85.21
2023-04-01T06:57:22.922Z,85.37
2023-04-01T06:58:22.938Z,84.72
2023-04-01T06:59:22.869Z,84.39
2023-04-01T07:00:22.850Z,85.38
2023-04-01T07:01:22.891Z,86.29
2023-04-01T07:02:22.813Z,85.92
2023-04-01T07:03:22.852Z,85.58
2023-04-01T07:04:22.894Z,85.48
2023-04-01T07:05:22.786Z,86.24
2023-04-01T07:06:22.758Z,85.72
2023-04-01T07:07:22.754Z,85.51
2023-04-01T07:08:22.739Z,85.21
2023-04-01T07:09:22.749Z,84.79
2023-04-01T07:10:22.747Z,85.08
2023-04-01T07:11:22.697Z,84.83
2023-04-01T07:12:22.689Z,83.96
2023-04-01T07:13:22.679Z,83.77
2023-04-01T07:14:22.683Z,83.85
2023-04-01T07:15:22.652Z,83.40
2023-04-01T07:16:22.719Z,84.09
2023-04-01T07:17:22.752Z,84.54
2023-04-01T07:18:22.620Z,83.92
2023-04-01T07:19:22.608Z,83.46
2023-04-01T07:20:22.580Z,82.36
2023-04-01T07:21:22.562Z,82.78
2023-04-01T07:22:22.611Z,83.30
2023-04-01T07:23:22.549Z,83.34
2023-04-01T07:24:22.602Z,82.83
2023-04-01T07:25:22.508Z,82.56
2023-04-01T07:26:22.536Z,82.40
2023-04-01T07:27:22.535Z,81.46
2023-04-01T07:28:22.527Z,81.09
2023-04-01T07:29:22.518Z,80.14
2023-04-01T07:30:22.490Z,80.83
2023-04-01T07:31:22.522Z,81.09
2023-04-01T07:32:22.480Z,81.05
2023-04-01T07:33:22.415Z,81.09
2023-04-01T07:34:22.424Z,80.81
2023-04-01T07:35:22.395Z,80.26
2023-04-01T07:36:22.420Z,79.75
2023-04-01T07:37:22.380Z,79.72
2023-04-01T07:38:22.380Z,78.13
2023-04-01T07:39:22.357Z,79.52
2023-04-01T07:40:22.377Z,79.15
2023-04-01T07:41:22.324Z,79.61
2023-04-01T07:42:22.299Z,79.91
2023-04-01T07:43:22.290Z,80.21
2023-04-01T07:44:22.280Z,80.05
2023-04-01T07:45:22.287Z,79.83
2023-04-01T07:46:22.371Z,80.76
2023-04-01T07:47:22.222Z,79.90
2023-04-01T07:48:22.226Z,80.82
2023-04-01T07:49:22.221Z,81.24
2023-04-01T07:50:22.186Z,81.76
2023-04-01T07:51:22.204Z,82.29
2023-04-01T07:52:22.309Z,82.37
2023-04-01T07:53:22.165Z,83.17
2023-04-01T07:54:22.142Z,82.20
2023-04-01T07:55:22.161Z,82.57
2023-04-01T07:56:22.140Z,82.81
2023-04-01T07:57:22.161Z,83.25
2023-04-01T07:58:22.140Z,82.21
2023-04-01T07:59:22.101Z,82.27
2023-04-01T08:00:22.081Z,82.53
2023-04-01T08:01:22.066Z,83.07
2023-04-01T08:02:22.103Z,82.98
2023-04-01T08:03:22.113Z,82.54
2023-04-01T08:04:22.065Z,81.87
2023-04-01T08:05:22.021Z,83.01
2023-04-01T08:06:21.999Z,83.50
2023-04-01T08:07:21.988Z,82.73
2023-04-01T08:08:21.966Z,83.04
2023-04-01T08:09:21.964Z,82.13
2023-04-01T08:10:21.975Z,81.33
2023-04-01T08:11:21.912Z,81.39
2023-04-01T08:12:22.628Z,81.49
2023-04-01T08:13:21.891Z,81.92
2023-04-01T08:14:21.889Z,82.28
2023-04-01T08:15:21.887Z,82.69
2023-04-01T08:16:21.887Z,82.13
2023-04-01T08:17:21.859Z,82.14
2023-04-01T08:18:21.830Z,81.81
2023-04-01T08:19:21.824Z,82.67
2023-04-01T08:20:21.799Z,82.90
2023-04-01T08:21:21.792Z,81.88
2023-04-01T08:22:21.794Z,82.28
2023-04-01T08:23:21.759Z,81.98
2023-04-01T08:24:22.831Z,81.96
2023-04-01T08:25:21.731Z,81.32
2023-04-01T08:26:21.721Z,82.52
2023-04-01T08:27:21.738Z,81.83
2023-04-01T08:28:21.717Z,82.41
2023-04-01T08:29:21.686Z,82.65
2023-04-01T08:30:21.675Z,82.31
2023-04-01T08:31:21.699Z,82.70
2023-04-01T08:32:21.689Z,82.86
2023-04-01T08:33:21.621Z,82.60
2023-04-01T08:34:21.670Z,82.83
2023-04-01T08:35:21.625Z,82.44
2023-04-01T08:36:21.629Z,82.28
2023-04-01T08:37:21.575Z,83.06
2023-04-01T08:38:21.566Z,83.76
2023-04-01T08:39:21.557Z,83.54
2023-04-01T08:40:21.647Z,83.80
2023-04-01T08:41:21.529Z,83.81
2023-04-01T08:42:21.504Z,84.30
2023-04-01T08:43:21.499Z,84.79
2023-04-01T08:44:21.481Z,84.30
2023-04-01T08:45:21.471Z,83.97
2023-04-01T08:46:21.619Z,83.85
2023-04-01T08:47:21.470Z,83.97
2023-04-01T08:48:21.443Z,83.70
2023-04-01T08:49:21.424Z,83.65
2023-04-01T08:50:21.434Z,84.07
2023-04-01T08:51:21.496Z,84.02
2023-04-01T08:52:21.422Z,83.73
2023-04-01T08:53:21.449Z,83.29
2023-04-01T08:54:21.469Z,84.21
2023-04-01T08:55:21.343Z,84.57
2023-04-01T08:56:21.343Z,83.99
2023-04-01T08:57:21.355Z,84.59
2023-04-01T08:58:21.342Z,84.66
2023-04-01T08:59:21.314Z,84.50
2023-04-01T09:00:21.315Z,84.93
2023-04-01T09:01:21.295Z,84.57
2023-04-01T09:02:21.391Z,84.25
2023-04-01T09:03:21.314Z,84.66
2023-04-01T09:04:21.273Z,84.65
2023-04-01T09:05:21.202Z,84.65
2023-04-01T09:06:21.197Z,84.69
2023-04-01T09:07:21.195Z,84.80
2023-04-01T09:08:21.182Z,84.71
2023-04-01T09:09:21.185Z,85.09
2023-04-01T09:10:21.258Z,84.82
2023-04-01T09:11:21.153Z,85.91
2023-04-01T09:12:21.121Z,85.95
2023-04-01T09:13:21.127Z,85.67
2023-04-01T09:14:21.108Z,85.44
2023-04-01T09:15:21.120Z,85.53
2023-04-01T09:16:21.153Z,85.54
2023-04-01T09:17:21.106Z,85.86
2023-04-01T09:18:21.083Z,85.72
2023-04-01T09:19:21.074Z,85.93
2023-04-01T09:20:21.166Z,85.49
2023-04-01T09:21:21.001Z,85.58
2023-04-01T09:22:21.036Z,85.90
2023-04-01T09:23:20.990Z,85.82
2023-04-01T09:24:20.984Z,86.21
2023-04-01T09:25:20.992Z,85.93
2023-04-01T09:26:20.944Z,85.32
2023-04-01T09:27:20.956Z,85.99
2023-04-01T09:28:20.985Z,85.96
2023-04-01T09:29:20.930Z,85.55
2023-04-01T09:30:20.956Z,85.17
2023-04-01T09:31:20.933Z,85.08
2023-04-01T09:32:20.900Z,85.39
2023-04-01T09:33:20.884Z,84.94
2023-04-01T09:34:20.902Z,85.04
2023-04-01T09:35:20.862Z,85.42
2023-04-01T09:36:20.859Z,85.22
2023-04-01T09:37:20.797Z,85.70
2023-04-01T09:38:21.015Z,85.67
2023-04-01T09:39:20.798Z,86.28
2023-04-01T09:40:20.812Z,85.45
2023-04-01T09:41:20.753Z,86.10
2023-04-01T09:42:20.743Z,86.15
2023-04-01T09:43:20.738Z,86.38
2023-04-01T09:44:20.736Z,86.91
2023-04-01T09:45:20.733Z,86.87
2023-04-01T09:46:20.781Z,86.76
2023-04-01T09:47:20.665Z,87.83
2023-04-01T09:48:21.450Z,87.70
2023-04-01T09:49:20.650Z,88.00
2023-04-01T09:50:20.671Z,87.32
2023-04-01T09:51:20.659Z,87.74
2023-04-01T09:52:20.646Z,88.10
2023-04-01T09:53:20.617Z,88.04
2023-04-01T09:54:20.688Z,88.59
2023-04-01T09:55:20.573Z,88.80
2023-04-01T09:56:20.572Z,88.20
2023-04-01T09:57:20.621Z,88.20
2023-04-01T09:58:20.573Z,87.69
2023-04-01T09:59:20.549Z,88.80
2023-04-01T10:00:20.515Z,89.01
2023-04-01T10:01:20.521Z,88.95
2023-04-01T10:02:20.501Z,89.57
2023-04-01T10:03:20.513Z,89.80
2023-04-01T10:04:20.556Z,89.02
2023-04-01T10:05:20.491Z,88.76
2023-04-01T10:06:20.451Z,89.10
2023-04-01T10:07:20.423Z,89.80
2023-04-01T10:08:20.423Z,89.28
2023-04-01T10:09:21.324Z,88.65
2023-04-01T10:10:20.416Z,89.28
2023-04-01T10:11:20.380Z,89.44
2023-04-01T10:12:20.368Z,89.77
2023-04-01T10:13:20.359Z,89.55
2023-04-01T10:14:20.379Z,88.53
2023-04-01T10:15:20.331Z,89.18
2023-04-01T10:16:20.416Z,89.39
2023-04-01T10:17:20.292Z,88.59
2023-04-01T10:18:20.273Z,88.26
2023-04-01T10:19:21.521Z,88.08
2023-04-01T10:20:20.365Z,88.03
2023-04-01T10:21:20.425Z,87.99
2023-04-01T10:22:20.388Z,87.82
2023-04-01T10:23:20.868Z,87.97
2023-04-01T10:24:20.264Z,87.38
2023-04-01T10:25:20.207Z,86.85
2023-04-01T10:26:20.203Z,86.49
2023-04-01T10:27:20.174Z,87.42
2023-04-01T10:28:20.188Z,86.66
2023-04-01T10:29:20.302Z,87.07
2023-04-01T10:30:20.132Z,86.28
2023-04-01T10:31:20.127Z,86.33
2023-04-01T10:32:20.117Z,86.30
2023-04-01T10:33:20.130Z,86.67
2023-04-01T10:34:20.111Z,86.80
2023-04-01T10:35:20.064Z,86.59
2023-04-01T10:36:20.070Z,86.49
2023-04-01T10:37:20.035Z,86.82
2023-04-01T10:38:20.032Z,86.14
2023-04-01T10:39:20.051Z,85.27
2023-04-01T10:40:20.028Z,85.51
2023-04-01T10:41:19.980Z,86.01
2023-04-01T10:42:20.040Z,85.40
2023-04-01T10:43:19.957Z,86.10
2023-04-01T10:44:20.099Z,86.39
2023-04-01T10:45:19.927Z,86.13
2023-04-01T10:46:19.960Z,85.75
2023-04-01T10:47:19.889Z,85.33
2023-04-01T10:48:19.936Z,85.94
2023-04-01T10:49:19.893Z,85.97
2023-04-01T10:50:19.930Z,85.50
2023-04-01T10:51:19.838Z,86.05
2023-04-01T10:52:19.882Z,85.33
2023-04-01T10:53:19.831Z,85.56
2023-04-01T10:54:19.813Z,85.88
2023-04-01T10:55:19.792Z,86.64
2023-04-01T10:56:19.793Z,86.00
2023-04-01T10:57:19.792Z,86.31
2023-04-01T10:58:19.778Z,86.50
2023-04-01T10:59:19.768Z,86.53
2023-04-01T11:00:19.749Z,87.09
2023-04-01T11:01:19.772Z,87.04
2023-04-01T11:02:19.757Z,86.80
2023-04-01T11:03:19.826Z,86.46
2023-04-01T11:04:19.777Z,85.41
2023-04-01T11:05:20.858Z,85.13
2023-04-01T11:06:19.683Z,85.21
2023-04-01T11:07:20.000Z,85.83
2023-04-01T11:08:19.693Z,86.03
2023-04-01T11:09:20.506Z,85.78
2023-04-01T11:10:19.952Z,85.33
2023-04-01T11:11:19.650Z,85.77
2023-04-01T11:12:19.671Z,85.30
2023-04-01T11:13:19.552Z,86.29
2023-04-01T11:14:19.563Z,85.27
2023-04-01T11:15:19.539Z,85.01
2023-04-01T11:16:19.814Z,85.11
2023-04-01T11:17:19.807Z,85.69
2023-04-01T11:18:19.489Z,87.01
2023-04-01T11:19:20.315Z,87.04
2023-04-01T11:20:19.518Z,86.58
2023-04-01T11:21:19.491Z,87.01
2023-04-01T11:22:19.477Z,86.35
2023-04-01T11:23:19.456Z,87.27
2023-04-01T11:24:19.520Z,87.63
2023-04-01T11:25:19.496Z,87.94
2023-04-01T11:26:19.507Z,87.28
2023-04-01T11:27:19.403Z,87.75
2023-04-01T11:28:19.418Z,88.54
2023-04-01T11:29:19.375Z,89.01
2023-04-01T11:30:19.347Z,88.72
2023-04-01T11:31:19.388Z,88.34
2023-04-01T11:32:19.310Z,87.71
2023-04-01T11:33:20.857Z,87.99
2023-04-01T11:34:19.339Z,88.59
2023-04-01T11:35:19.287Z,88.86
2023-04-01T11:36:19.288Z,87.26
2023-04-01T11:37:19.330Z,87.32
2023-04-01T11:38:19.257Z,86.88
2023-04-01T11:39:19.243Z,87.65
2023-04-01T11:40:19.237Z,87.39
2023-04-01T11:41:19.251Z,87.65
2023-04-01T11:42:19.185Z,87.32
2023-04-01T11:43:32.307Z,86.46
2023-04-01T11:44:19.190Z,86.90
2023-04-01T11:45:19.149Z,87.02
2023-04-01T11:46:19.194Z,87.65
2023-04-01T11:47:19.136Z,87.04
2023-04-01T11:48:19.149Z,86.82
2023-04-01T11:49:19.094Z,86.21
2023-04-01T11:50:19.097Z,85.81
2023-04-01T11:51:19.092Z,84.72
2023-04-01T11:52:19.109Z,84.28
2023-04-01T11:53:19.039Z,83.70
2023-04-01T11:54:19.065Z,83.81
2023-04-01T11:55:19.026Z,84.03
2023-04-01T11:56:19.004Z,83.12
2023-04-01T11:57:19.020Z,84.07
2023-04-01T11:58:19.005Z,82.82
2023-04-01T11:59:18.979Z,83.23
2023-04-01T12:00:18.945Z,82.48
2023-04-01T12:01:18.939Z,82.33
2023-04-01T12:02:21.178Z,82.94
2023-04-01T12:03:19.060Z,83.06
2023-04-01T12:04:19.116Z,82.98
2023-04-01T12:05:18.874Z,82.36
2023-04-01T12:06:18.871Z,81.99
2023-04-01T12:07:19.409Z,81.86
2023-04-01T12:08:18.841Z,81.25
2023-04-01T12:09:18.850Z,81.15
2023-04-01T12:10:18.849Z,81.23
2023-04-01T12:11:18.815Z,80.90
2023-04-01T12:12:18.813Z,80.97
2023-04-01T12:13:18.771Z,81.30
2023-04-01T12:14:18.774Z,80.52
2023-04-01T12:15:18.770Z,80.78
2023-04-01T12:16:18.860Z,80.92
2023-04-01T12:17:18.752Z,81.91
2023-04-01T12:18:18.999Z,82.04
2023-04-01T12:19:18.730Z,82.84
2023-04-01T12:20:18.720Z,82.44
2023-04-01T12:21:18.749Z,81.21
2023-04-01T12:22:18.750Z,81.71
2023-04-01T12:23:18.654Z,80.62
2023-04-01T12:24:18.626Z,80.31
2023-04-01T12:25:18.655Z,79.75
2023-04-01T12:26:18.604Z,78.72
2023-04-01T12:27:19.398Z,78.54
2023-04-01T12:28:18.648Z,79.41
2023-04-01T12:29:18.582Z,78.57
2023-04-01T12:30:19.503Z,78.21
2023-04-01T12:31:18.555Z,79.26
2023-04-01T12:32:18.596Z,77.38
2023-04-01T12:33:18.569Z,78.78
2023-04-01T12:34:18.552Z,78.04
2023-04-01T12:35:18.496Z,78.44
2023-04-01T12:36:18.515Z,78.54
2023-04-01T12:37:18.487Z,78.10
2023-04-01T12:38:20.300Z,77.88
2023-04-01T12:39:18.473Z,78.29
2023-04-01T12:40:18.473Z,78.80
2023-04-01T12:41:18.685Z,78.21
2023-04-01T12:42:18.433Z,78.43
2023-04-01T12:43:18.389Z,78.57
2023-04-01T12:44:18.432Z,78.97
2023-04-01T12:45:18.394Z,78.43
2023-04-01T12:46:18.502Z,78.60
2023-04-01T12:47:18.356Z,78.24
2023-04-01T12:48:18.335Z,77.64
2023-04-01T12:49:18.921Z,78.02
2023-04-01T12:50:18.325Z,78.86
2023-04-01T12:51:18.310Z,78.55
2023-04-01T12:52:18.352Z,79.09